createdAt,value
2018-11-04T00:02:17.387Z,22.07
2018-11-04T00:04:46.498Z,21.90
2018-11-04T00:07:15.643Z,21.70
2018-11-04T00:09:45.155Z,23.40
2018-11-04T00:12:14.297Z,23.27
2018-11-04T00:14:43.502Z,23.37
2018-11-04T00:17:12.817Z,26.70
2018-11-04T00:19:48.676Z,21.67
2018-11-04T00:22:18.351Z,23.77
2018-11-04T00:24:47.500Z,27.83
2018-11-04T00:27:17.935Z,21.73
2018-11-04T00:29:46.987Z,24.10
2018-11-04T00:32:16.099Z,21.70
2018-11-04T00:34:45.484Z,22.07
2018-11-04T00:37:14.696Z,24.47
2018-11-04T00:39:43.835Z,21.93
2018-11-04T00:42:13.134Z,23.77
2018-11-04T00:44:42.907Z,25.30
2018-11-04T00:47:13.289Z,24.37
2018-11-04T00:49:42.517Z,23.10
2018-11-04T00:52:11.701Z,22.33
2018-11-04T00:54:41.434Z,24.77
2018-11-04T00:57:10.623Z,27.13
2018-11-04T00:59:39.768Z,23.03
2018-11-04T01:02:08.876Z,23.37
2018-11-04T01:04:38.072Z,29.60
2018-11-04T01:07:07.247Z,24.67
2018-11-04T01:09:36.391Z,25.83
2018-11-04T01:12:06.008Z,24.63
2018-11-04T01:14:35.232Z,27.03
2018-11-04T01:17:04.803Z,25.37
2018-11-04T01:19:34.090Z,27.73
2018-11-04T01:22:03.634Z,25.50
2018-11-04T01:24:32.871Z,25.63
2018-11-04T01:27:02.057Z,32.13
2018-11-04T01:29:31.272Z,33.90
2018-11-04T01:32:00.941Z,27.07
2018-11-04T01:34:30.012Z,27.10
2018-11-04T01:36:59.244Z,30.30
2018-11-04T01:39:28.375Z,28.97
2018-11-04T01:41:57.558Z,28.83
2018-11-04T01:44:26.664Z,35.67
2018-11-04T01:46:55.828Z,35.13
2018-11-04T01:49:24.974Z,31.87
2018-11-04T01:51:54.080Z,28.20
2018-11-04T01:54:23.252Z,28.13
2018-11-04T01:56:52.529Z,35.00
2018-11-04T01:59:21.673Z,27.77
2018-11-04T02:01:50.899Z,33.27
2018-11-04T02:04:19.964Z,30.90
2018-11-04T02:06:49.090Z,33.67
2018-11-04T02:09:18.155Z,35.00
2018-11-04T02:11:47.235Z,32.30
2018-11-04T02:14:16.947Z,34.37
2018-11-04T02:16:46.419Z,30.40
2018-11-04T02:19:15.644Z,27.13
2018-11-04T02:21:45.956Z,29.60
2018-11-04T02:24:15.585Z,29.63
2018-11-04T02:26:45.231Z,31.60
2018-11-04T02:29:14.279Z,30.20
2018-11-04T02:31:43.407Z,31.10
2018-11-04T02:34:12.556Z,35.33
2018-11-04T02:36:41.630Z,32.73
2018-11-04T02:39:11.239Z,31.07
2018-11-04T02:41:40.331Z,30.80
2018-11-04T02:44:09.420Z,35.10
2018-11-04T02:46:38.504Z,26.73
2018-11-04T02:49:07.564Z,28.53
2018-11-04T02:51:36.673Z,30.70
2018-11-04T02:54:05.755Z,29.90
2018-11-04T02:56:34.795Z,31.70
2018-11-04T02:59:03.945Z,29.07
2018-11-04T03:01:33.149Z,27.07
2018-11-04T03:04:02.296Z,30.13
2018-11-04T03:06:31.378Z,29.93
2018-11-04T03:09:00.455Z,30.43
2018-11-04T03:11:29.535Z,29.47
2018-11-04T03:13:58.692Z,31.23
2018-11-04T03:16:28.467Z,30.90
2018-11-04T03:18:57.549Z,30.40
2018-11-04T03:21:26.664Z,32.57
2018-11-04T03:23:55.756Z,34.60
2018-11-04T03:26:24.810Z,35.60
2018-11-04T03:28:53.926Z,27.50
2018-11-04T03:31:23.177Z,27.00
2018-11-04T03:33:52.253Z,25.67
2018-11-04T03:36:21.292Z,31.07
2018-11-04T03:38:50.895Z,30.70
2018-11-04T03:41:19.985Z,28.97
2018-11-04T03:43:49.427Z,29.90
2018-11-04T03:46:18.542Z,30.13
2018-11-04T03:48:47.600Z,30.83
2018-11-04T03:51:17.646Z,29.87
2018-11-04T03:53:47.032Z,33.23
2018-11-04T03:56:16.115Z,34.33
2018-11-04T03:58:45.850Z,29.43
2018-11-04T04:01:14.968Z,30.43
2018-11-04T04:03:44.037Z,28.30
2018-11-04T04:06:13.681Z,25.50
2018-11-04T04:08:43.374Z,29.80
2018-11-04T04:11:12.497Z,29.53
2018-11-04T04:13:41.613Z,30.53
2018-11-04T04:16:10.702Z,28.50
2018-11-04T04:18:39.780Z,30.33
2018-11-04T04:21:09.682Z,34.07
2018-11-04T04:23:39.866Z,27.87
2018-11-04T04:26:10.192Z,29.57
2018-11-04T04:28:39.476Z,29.53
2018-11-04T04:31:08.592Z,28.10
2018-11-04T04:33:37.811Z,30.30
2018-11-04T04:36:07.579Z,28.67
2018-11-04T04:38:37.033Z,32.27
2018-11-04T04:41:07.009Z,31.53
2018-11-04T04:43:36.249Z,31.57
2018-11-04T04:46:05.683Z,24.73
2018-11-04T04:48:34.767Z,26.07
2018-11-04T04:51:04.560Z,31.00
2018-11-04T04:53:33.597Z,34.10
2018-11-04T04:56:02.766Z,30.53
2018-11-04T04:58:31.864Z,34.93
2018-11-04T05:01:00.952Z,33.27
2018-11-04T05:03:30.314Z,27.90
2018-11-04T05:05:59.452Z,33.73
2018-11-04T05:08:28.553Z,30.27
2018-11-04T05:10:57.623Z,27.47
2018-11-04T05:13:26.765Z,32.27
2018-11-04T05:15:55.881Z,32.37
2018-11-04T05:18:24.952Z,33.93
2018-11-04T05:20:54.055Z,30.20
2018-11-04T05:23:23.160Z,31.90
2018-11-04T05:25:52.240Z,37.00
2018-11-04T05:28:21.351Z,33.60
2018-11-04T05:30:50.461Z,35.03
2018-11-04T05:33:20.202Z,34.80
2018-11-04T05:35:49.290Z,36.77
2018-11-04T05:38:18.403Z,37.90
2018-11-04T05:40:47.420Z,30.63
2018-11-04T05:43:17.330Z,45.20
2018-11-04T05:45:46.570Z,38.30
2018-11-04T05:48:16.012Z,45.53
2018-11-04T05:50:45.245Z,44.20
2018-11-04T05:53:14.339Z,39.73
2018-11-04T05:55:43.423Z,35.93
2018-11-04T05:58:13.252Z,33.67
2018-11-04T06:00:42.355Z,35.23
2018-11-04T06:03:11.543Z,38.37
2018-11-04T06:05:41.242Z,38.27
2018-11-04T06:08:10.351Z,41.20
2018-11-04T06:10:39.510Z,36.00
2018-11-04T06:13:08.611Z,34.93
2018-11-04T06:15:37.692Z,35.53
2018-11-04T06:18:06.777Z,35.77
2018-11-04T06:20:35.929Z,36.67
2018-11-04T06:23:05.033Z,34.63
2018-11-04T06:25:34.091Z,37.80
2018-11-04T06:28:04.559Z,38.73
2018-11-04T06:30:33.649Z,35.63
2018-11-04T06:33:02.743Z,38.47
2018-11-04T06:35:31.815Z,35.73
2018-11-04T06:38:01.223Z,38.30
2018-11-04T06:40:30.321Z,39.40
2018-11-04T06:42:59.422Z,37.67
2018-11-04T06:45:29.228Z,39.83
2018-11-04T06:47:59.429Z,36.37
2018-11-04T06:50:29.906Z,37.50
2018-11-04T06:53:00.034Z,41.40
2018-11-04T06:55:29.132Z,37.10
2018-11-04T06:57:58.811Z,47.87
2018-11-04T07:00:27.874Z,41.60
2018-11-04T07:02:56.953Z,40.87
2018-11-04T07:05:26.098Z,37.10
2018-11-04T07:09:19.653Z,37.90
2018-11-04T07:11:49.646Z,39.40
2018-11-04T07:14:19.314Z,44.80
2018-11-04T07:16:48.417Z,41.50
2018-11-04T07:19:17.767Z,42.53
2018-11-04T07:21:47.025Z,36.73
2018-11-04T07:24:16.103Z,35.30
2018-11-04T07:26:45.217Z,37.33
2018-11-04T07:29:14.278Z,45.43
2018-11-04T07:31:43.751Z,39.60
2018-11-04T07:34:12.902Z,35.40
2018-11-04T07:36:41.980Z,35.03
2018-11-04T07:39:13.039Z,39.30
2018-11-04T07:41:42.236Z,38.53
2018-11-04T07:44:11.460Z,36.60
2018-11-04T07:46:40.668Z,42.50
2018-11-04T07:49:10.259Z,40.10
2018-11-04T07:51:40.136Z,37.50
2018-11-04T07:54:09.152Z,35.60
2018-11-04T07:56:38.855Z,42.23
2018-11-04T07:59:08.214Z,40.17
2018-11-04T08:01:37.422Z,40.73
2018-11-04T08:04:06.785Z,42.87
2018-11-04T08:06:35.847Z,46.60
2018-11-04T08:09:07.416Z,39.73
2018-11-04T08:11:37.656Z,44.53
2018-11-04T08:14:07.093Z,51.77
2018-11-04T08:16:36.470Z,46.70
2018-11-04T08:19:05.715Z,49.37
2018-11-04T08:21:34.821Z,50.80
2018-11-04T08:24:04.677Z,51.00
2018-11-04T08:26:33.820Z,47.13
2018-11-04T08:29:03.058Z,47.10
2018-11-04T08:31:32.198Z,47.40
2018-11-04T08:34:01.273Z,46.03
2018-11-04T08:36:30.404Z,46.97
2018-11-04T08:39:00.355Z,43.13
2018-11-04T08:41:29.438Z,45.17
2018-11-04T08:43:59.271Z,47.03
2018-11-04T08:46:28.884Z,47.47
2018-11-04T08:48:58.098Z,42.00
2018-11-04T08:51:27.192Z,48.67
2018-11-04T08:53:56.282Z,51.77
2018-11-04T08:56:25.459Z,47.60
2018-11-04T08:58:54.572Z,45.83
2018-11-04T09:01:23.858Z,46.17
2018-11-04T09:03:53.551Z,41.93
2018-11-04T09:06:22.870Z,48.80
2018-11-04T09:08:52.134Z,48.70
2018-11-04T09:11:21.252Z,48.00
2018-11-04T09:13:50.352Z,46.77
2018-11-04T09:16:19.551Z,46.77
2018-11-04T09:18:48.672Z,50.97
2018-11-04T09:21:18.520Z,41.43
2018-11-04T09:23:47.757Z,44.33
2018-11-04T09:26:16.759Z,40.07
2018-11-04T09:28:46.332Z,52.47
2018-11-04T09:31:15.809Z,46.20
2018-11-04T09:33:45.868Z,45.70
2018-11-04T09:36:15.841Z,48.07
2018-11-04T09:38:44.835Z,49.20
2018-11-04T09:41:14.092Z,55.20
2018-11-04T09:43:43.246Z,50.17
2018-11-04T09:46:12.611Z,45.23
2018-11-04T09:48:41.982Z,49.00
2018-11-04T09:51:11.950Z,48.30
2018-11-04T09:53:41.051Z,47.60
2018-11-04T09:56:10.770Z,47.00
2018-11-04T09:58:46.648Z,46.50
2018-11-04T10:01:15.844Z,50.20
2018-11-04T10:03:44.990Z,43.43
2018-11-04T10:06:14.204Z,60.93
2018-11-04T10:08:43.335Z,50.00
2018-11-04T10:11:12.758Z,42.23
2018-11-04T10:13:42.034Z,58.40
2018-11-04T10:16:11.408Z,45.33
2018-11-04T10:18:41.274Z,48.13
2018-11-04T10:21:10.705Z,45.93
2018-11-04T10:23:39.659Z,42.90
2018-11-04T10:26:08.776Z,45.60
2018-11-04T10:28:38.009Z,44.13
2018-11-04T10:31:07.166Z,50.37
2018-11-04T10:33:36.316Z,46.43
2018-11-04T10:36:06.552Z,39.10
2018-11-04T10:38:35.674Z,47.43
2018-11-04T10:41:04.856Z,46.63
2018-11-04T10:43:34.802Z,46.33
2018-11-04T10:46:05.099Z,47.83
2018-11-04T10:48:34.261Z,47.30
2018-11-04T10:51:03.456Z,43.57
2018-11-04T10:53:32.713Z,44.73
2018-11-04T10:56:01.913Z,44.63
2018-11-04T10:58:31.150Z,45.70
2018-11-04T11:01:05.684Z,44.50
2018-11-04T11:03:35.122Z,48.20
2018-11-04T11:06:05.053Z,43.23
2018-11-04T11:08:34.984Z,48.47
2018-11-04T11:11:04.921Z,45.80
2018-11-04T11:13:35.169Z,47.03
2018-11-04T11:16:04.648Z,49.80
2018-11-04T11:18:34.546Z,45.57
2018-11-04T11:21:03.706Z,45.10
2018-11-04T11:23:32.821Z,50.27
2018-11-04T11:26:02.130Z,48.43
2018-11-04T11:28:31.841Z,41.57
2018-11-04T11:31:04.994Z,51.03
2018-11-04T11:33:34.207Z,48.27
2018-11-04T11:36:03.438Z,46.87
2018-11-04T11:38:33.769Z,54.03
2018-11-04T11:41:03.867Z,48.63
2018-11-04T11:43:33.034Z,47.30
2018-11-04T11:46:03.486Z,52.07
2018-11-04T11:48:33.124Z,49.77
2018-11-04T11:51:02.389Z,45.80
2018-11-04T11:53:33.903Z,46.57
2018-11-04T11:58:30.633Z,45.43
2018-11-04T12:00:59.806Z,46.50
2018-11-04T12:03:29.735Z,45.37
2018-11-04T12:05:59.584Z,42.67
2018-11-04T12:08:30.060Z,47.30
2018-11-04T12:10:59.859Z,46.90
2018-11-04T12:13:29.942Z,46.80
2018-11-04T12:16:00.222Z,48.70
2018-11-04T12:18:29.773Z,43.10
2018-11-04T12:20:59.085Z,46.83
2018-11-04T12:23:28.993Z,47.80
2018-11-04T12:25:59.019Z,45.90
2018-11-04T12:28:29.305Z,46.43
2018-11-04T12:30:58.769Z,45.70
2018-11-04T12:33:29.160Z,46.60
2018-11-04T12:35:58.652Z,49.57
2018-11-04T12:38:27.950Z,45.60
2018-11-04T12:40:57.704Z,48.77
2018-11-04T12:43:27.041Z,55.53
2018-11-04T12:45:57.778Z,50.83
2018-11-04T12:48:26.991Z,51.83
2018-11-04T12:50:56.244Z,49.60
2018-11-04T12:53:25.578Z,45.10
2018-11-04T12:55:54.928Z,50.53
2018-11-04T12:58:24.710Z,51.47
2018-11-04T13:00:54.825Z,48.30
2018-11-04T13:03:25.636Z,46.53
2018-11-04T13:05:56.237Z,49.47
2018-11-04T13:08:26.890Z,46.63
2018-11-04T13:10:56.593Z,44.40
2018-11-04T13:13:26.344Z,64.13
2018-11-04T13:15:55.597Z,48.73
2018-11-04T13:18:26.126Z,44.73
2018-11-04T13:20:55.928Z,40.23
2018-11-04T13:23:25.695Z,54.43
2018-11-04T13:25:56.012Z,47.10
2018-11-04T13:30:52.589Z,45.93
2018-11-04T13:33:21.764Z,45.47
2018-11-04T13:35:51.065Z,48.60
2018-11-04T13:38:21.005Z,48.53
2018-11-04T13:40:50.721Z,45.37
2018-11-04T13:43:19.945Z,47.90
2018-11-04T13:45:49.217Z,46.47
2018-11-04T13:48:19.298Z,41.57
2018-11-04T13:50:48.909Z,38.17
2018-11-04T13:53:18.276Z,45.80
2018-11-04T13:55:47.465Z,36.97
2018-11-04T13:58:16.732Z,39.90
2018-11-04T14:00:46.020Z,39.50
2018-11-04T14:03:15.282Z,37.30
2018-11-04T14:05:44.593Z,36.13
2018-11-04T14:08:13.798Z,33.03
2018-11-04T14:10:42.970Z,30.90
2018-11-04T14:13:12.731Z,33.17
2018-11-04T14:15:42.014Z,32.93
2018-11-04T14:18:11.296Z,34.37
2018-11-04T14:20:40.455Z,33.30
2018-11-04T14:23:09.723Z,33.03
2018-11-04T14:25:39.068Z,35.00
2018-11-04T14:28:08.492Z,34.10
2018-11-04T14:30:38.397Z,30.83
2018-11-04T14:33:08.119Z,31.90
2018-11-04T14:35:37.253Z,32.40
2018-11-04T14:38:08.371Z,25.70
2018-11-04T14:40:37.613Z,30.83
2018-11-04T14:43:07.687Z,28.27
2018-11-04T14:45:36.938Z,28.53
2018-11-04T14:48:06.550Z,28.70
2018-11-04T14:50:36.933Z,28.30
2018-11-04T14:53:06.455Z,32.10
2018-11-04T14:55:35.555Z,26.87
2018-11-04T14:58:04.851Z,27.03
2018-11-04T15:00:36.701Z,23.23
2018-11-04T15:03:07.230Z,28.90
2018-11-04T15:05:36.705Z,24.67
2018-11-04T15:08:05.994Z,25.67
2018-11-04T15:10:35.112Z,25.13
2018-11-04T15:13:05.350Z,32.30
2018-11-04T15:15:36.353Z,24.47
2018-11-04T15:18:05.678Z,23.30
2018-11-04T15:20:34.856Z,21.90
2018-11-04T15:23:04.148Z,24.10
2018-11-04T15:25:33.483Z,22.30
2018-11-04T15:28:02.732Z,21.70
2018-11-04T15:30:31.866Z,19.17
2018-11-04T15:33:01.089Z,20.77
2018-11-04T15:35:30.468Z,18.20
2018-11-04T15:38:00.263Z,18.03
2018-11-04T15:40:30.065Z,18.70
2018-11-04T15:42:59.225Z,16.07
2018-11-04T15:45:28.509Z,15.83
2018-11-04T15:47:57.751Z,15.27
2018-11-04T15:50:27.030Z,14.63
2018-11-04T15:52:56.180Z,18.13
2018-11-04T15:55:25.357Z,18.00
2018-11-04T15:57:54.621Z,21.00
2018-11-04T16:00:23.852Z,17.37
2018-11-04T16:02:53.067Z,17.00
2018-11-04T16:05:22.309Z,17.73
2018-11-04T16:07:51.517Z,17.33
2018-11-04T16:10:21.389Z,16.60
2018-11-04T16:12:50.606Z,18.50
2018-11-04T16:15:20.032Z,17.07
2018-11-04T16:17:49.852Z,16.50
2018-11-04T16:20:19.076Z,17.13
2018-11-04T16:22:48.972Z,18.60
2018-11-04T16:25:18.333Z,16.57
2018-11-04T16:27:47.536Z,17.77
2018-11-04T16:30:16.658Z,17.50
2018-11-04T16:32:45.825Z,17.37
2018-11-04T16:35:15.453Z,16.73
2018-11-04T16:37:45.391Z,18.00
2018-11-04T16:40:14.916Z,19.03
2018-11-04T16:42:44.346Z,18.07
2018-11-04T16:45:15.029Z,17.37
2018-11-04T16:47:44.491Z,16.60
2018-11-04T16:50:14.671Z,17.83
2018-11-04T16:52:44.529Z,18.50
2018-11-04T16:55:13.955Z,17.63
2018-11-04T16:57:43.575Z,20.47
2018-11-04T17:00:12.916Z,17.00
2018-11-04T17:02:42.112Z,16.23
2018-11-04T17:05:12.374Z,16.37
2018-11-04T17:07:43.021Z,18.30
2018-11-04T17:10:12.436Z,17.40
2018-11-04T17:12:41.543Z,18.77
2018-11-04T17:15:12.648Z,19.33
2018-11-04T17:17:42.117Z,15.90
2018-11-04T17:20:15.329Z,19.10
2018-11-04T17:22:45.200Z,17.60
2018-11-04T17:25:14.401Z,19.50
2018-11-04T17:27:43.897Z,17.80
2018-11-04T17:30:15.756Z,21.03
2018-11-04T17:32:45.309Z,19.63
2018-11-04T17:35:15.286Z,18.20
2018-11-04T17:37:45.113Z,20.13
2018-11-04T17:40:15.244Z,17.53
2018-11-04T17:42:44.544Z,19.67
2018-11-04T17:45:15.061Z,19.77
2018-11-04T17:47:45.372Z,16.40
2018-11-04T17:50:16.181Z,17.20
2018-11-04T17:52:45.847Z,16.00
2018-11-04T17:55:15.667Z,17.13
2018-11-04T17:57:45.026Z,17.87
2018-11-04T18:00:15.407Z,19.10
2018-11-04T18:02:44.822Z,16.90
2018-11-04T18:05:14.620Z,17.33
2018-11-04T18:07:44.271Z,19.60
2018-11-04T18:10:14.180Z,18.43
2018-11-04T18:12:43.444Z,32.13
2018-11-04T18:15:13.474Z,69.13
2018-11-04T18:17:42.683Z,18.97
2018-11-04T18:20:12.365Z,16.00
2018-11-04T18:22:41.968Z,19.10
2018-11-04T18:25:12.226Z,16.90
2018-11-04T18:27:42.117Z,17.40
2018-11-04T18:30:13.666Z,16.83
2018-11-04T18:32:43.826Z,18.10
2018-11-04T18:35:13.028Z,18.13
2018-11-04T18:37:42.728Z,16.97
2018-11-04T18:40:14.666Z,17.80
2018-11-04T18:42:44.412Z,16.40
2018-11-04T18:45:15.067Z,20.60
2018-11-04T18:47:44.493Z,19.27
2018-11-04T18:50:14.812Z,18.77
2018-11-04T18:52:45.682Z,18.07
2018-11-04T18:55:14.975Z,20.80
2018-11-04T18:57:44.769Z,18.30
2018-11-04T19:00:15.364Z,18.60
2018-11-04T19:02:45.748Z,20.50
2018-11-04T19:05:15.831Z,17.30
2018-11-04T19:07:44.989Z,21.60
2018-11-04T19:10:15.607Z,23.50
2018-11-04T19:12:44.944Z,22.63
2018-11-04T19:15:14.483Z,20.20
2018-11-04T19:17:43.664Z,19.60
2018-11-04T19:20:13.996Z,20.23
2018-11-04T19:22:43.191Z,20.07
2018-11-04T19:25:13.409Z,25.30
2018-11-04T19:27:42.705Z,26.20
2018-11-04T19:30:14.297Z,20.37
2018-11-04T19:32:43.996Z,23.53
2018-11-04T19:35:14.083Z,25.70
2018-11-04T19:37:43.322Z,21.70
2018-11-04T19:40:14.044Z,20.70
2018-11-04T19:42:44.097Z,23.40
2018-11-04T19:45:13.870Z,23.00
2018-11-04T19:47:43.129Z,24.17
2018-11-04T19:50:13.257Z,24.10
2018-11-04T19:52:42.749Z,23.47
2018-11-04T19:55:13.005Z,22.40
2018-11-04T19:57:42.262Z,21.97
2018-11-04T20:00:12.682Z,24.97
2018-11-04T20:02:42.795Z,24.10
2018-11-04T20:05:12.764Z,25.40
2018-11-04T20:07:42.357Z,33.80
2018-11-04T20:10:14.003Z,29.80
2018-11-04T20:12:48.664Z,25.53
2018-11-04T20:15:17.888Z,28.53
2018-11-04T20:17:47.854Z,27.73
2018-11-04T20:20:18.774Z,26.30
2018-11-04T20:22:48.089Z,25.80
2018-11-04T20:25:22.800Z,27.00
2018-11-04T20:27:51.882Z,23.90
2018-11-04T20:30:21.749Z,24.97
2018-11-04T20:32:56.105Z,23.97
2018-11-04T20:35:25.321Z,24.80
2018-11-04T20:37:54.566Z,23.07
2018-11-04T20:40:29.015Z,24.97
2018-11-04T20:42:58.698Z,26.27
2018-11-04T20:45:28.069Z,27.00
2018-11-04T20:48:03.372Z,23.33
2018-11-04T20:50:37.956Z,24.50
2018-11-04T20:53:07.268Z,25.93
2018-11-04T20:55:41.911Z,25.73
2018-11-04T20:58:12.880Z,22.50
2018-11-04T21:00:42.293Z,24.83
2018-11-04T21:03:13.543Z,22.83
2018-11-04T21:05:43.360Z,24.80
2018-11-04T21:08:12.736Z,25.30
2018-11-04T21:10:41.968Z,26.20
2018-11-04T21:13:12.162Z,34.50
2018-11-04T21:15:42.511Z,24.40
2018-11-04T21:18:11.567Z,30.47
2018-11-04T21:20:41.196Z,25.60
2018-11-04T21:23:11.766Z,23.40
2018-11-04T21:25:41.180Z,25.57
2018-11-04T21:28:14.099Z,25.80
2018-11-04T21:30:43.231Z,23.77
2018-11-04T21:33:15.468Z,25.50
2018-11-04T21:35:44.955Z,27.97
2018-11-04T21:38:18.114Z,26.07
2018-11-04T21:40:47.235Z,28.00
2018-11-04T21:43:18.179Z,23.23
2018-11-04T21:45:47.274Z,24.17
2018-11-04T21:48:16.974Z,22.93
2018-11-04T21:50:46.224Z,24.00
2018-11-04T21:53:15.409Z,23.70
2018-11-04T21:55:45.028Z,22.80
2018-11-04T21:58:15.163Z,27.57
2018-11-04T22:00:44.403Z,22.83
2018-11-04T22:03:13.816Z,22.37
2018-11-04T22:05:43.420Z,21.70
2018-11-04T22:08:12.742Z,21.63
2018-11-04T22:10:41.880Z,29.47
2018-11-04T22:13:11.097Z,23.73
2018-11-04T22:15:40.352Z,25.63
2018-11-04T22:18:09.645Z,27.13
2018-11-04T22:20:38.859Z,21.63
2018-11-04T22:23:07.955Z,25.73
2018-11-04T22:25:37.242Z,26.70
2018-11-04T22:28:06.328Z,23.90
2018-11-04T22:30:36.104Z,29.63
2018-11-04T22:33:05.274Z,27.73
2018-11-04T22:35:34.499Z,23.73
2018-11-04T22:38:04.250Z,25.00
2018-11-04T22:40:33.427Z,22.73
2018-11-04T22:43:02.621Z,26.10
2018-11-04T22:45:31.804Z,25.97
2018-11-04T22:48:00.896Z,23.53
2018-11-04T22:50:29.983Z,25.10
2018-11-04T22:52:59.280Z,23.13
2018-11-04T22:55:28.384Z,23.00
2018-11-04T22:58:02.691Z,28.10
2018-11-04T23:00:38.839Z,27.10
2018-11-04T23:03:08.016Z,27.13
2018-11-04T23:05:37.987Z,26.27
2018-11-04T23:08:07.778Z,25.83
2018-11-04T23:10:37.071Z,27.73
2018-11-04T23:13:06.801Z,27.67
2018-11-04T23:15:35.948Z,27.20
2018-11-04T23:18:05.396Z,24.73
2018-11-04T23:20:35.190Z,25.80
2018-11-04T23:23:04.441Z,26.60
2018-11-04T23:25:33.536Z,25.07
2018-11-04T23:28:02.814Z,27.50
2018-11-04T23:30:32.003Z,24.53
2018-11-04T23:33:01.283Z,24.97
2018-11-04T23:35:30.515Z,26.60
2018-11-04T23:37:59.646Z,25.90
2018-11-04T23:40:28.768Z,26.70
2018-11-04T23:42:57.867Z,23.40
2018-11-04T23:45:27.084Z,23.60
2018-11-04T23:47:56.913Z,25.23
2018-11-04T23:50:26.400Z,24.80
2018-11-04T23:52:55.634Z,23.03
2018-11-04T23:55:25.504Z,27.30
2018-11-04T23:57:55.286Z,28.80
